Time;durP1;ratioP1;P1;durP2;ratioP2;P2;SDS_P1;SDS_P2;PMS_P1;PMS_P2;Temp;Humidity;BMP_temperature;BMP_pressure;BME280_temperature;BME280_humidity;BME280_pressure;Samples;Min_cycle;Max_cycle;Signal;HPM_P1;HPM_P2
2023/01/24 00:00:49;;;;;;;22.27;19.73;;;;;;;1.91;100.00;103683.59;5071732;28;20399;-83
2023/01/24 00:03:15;;;;;;;21.27;18.53;;;;;;;1.89;100.00;103690.81;5092374;28;20037;-83
2023/01/24 00:05:43;;;;;;;20.90;18.33;;;;;;;1.92;100.00;103691.53;5094835;28;20123;-83
2023/01/24 00:08:10;;;;;;;21.37;19.07;;;;;;;1.87;100.00;103680.22;5093946;28;20028;-83
2023/01/24 00:10:36;;;;;;;21.93;19.53;;;;;;;1.90;100.00;103688.06;5100034;28;20032;-83
2023/01/24 00:13:02;;;;;;;21.63;19.07;;;;;;;1.91;100.00;103683.59;5072690;28;20039;-83
2023/01/24 00:15:27;;;;;;;22.70;19.67;;;;;;;1.87;100.00;103684.69;5087119;28;20063;-84
2023/01/24 00:17:52;;;;;;;22.60;19.70;;;;;;;1.89;100.00;103691.69;5074034;28;20028;-83
2023/01/24 00:20:18;;;;;;;23.20;19.93;;;;;;;1.89;100.00;103693.47;5079151;28;20074;-90
2023/01/24 00:22:43;;;;;;;22.30;19.67;;;;;;;1.90;100.00;103695.22;5077470;28;20040;-89
2023/01/24 00:25:09;;;;;;;22.23;19.80;;;;;;;1.87;100.00;103688.22;5085983;28;20028;-90
2023/01/24 00:27:35;;;;;;;22.33;19.57;;;;;;;1.86;100.00;103681.16;5074201;28;20037;-90
2023/01/24 00:30:01;;;;;;;22.40;20.00;;;;;;;1.89;100.00;103680.13;5097826;28;20415;-89
2023/01/24 00:32:27;;;;;;;22.83;20.00;;;;;;;1.89;100.00;103677.44;5098668;28;20016;-83
2023/01/24 00:34:52;;;;;;;23.40;20.73;;;;;;;1.89;100.00;103674.78;5095393;28;20054;-83
2023/01/24 00:37:17;;;;;;;23.47;20.97;;;;;;;1.85;100.00;103663.41;5079243;28;20032;-83
2023/01/24 00:39:43;;;;;;;24.10;21.13;;;;;;;1.84;100.00;103667.88;5093936;28;20476;-84
2023/01/24 00:42:08;;;;;;;26.80;23.83;;;;;;;1.83;100.00;103666.13;5098693;28;20118;-83
2023/01/24 00:44:33;;;;;;;23.17;20.50;;;;;;;1.83;100.00;103665.28;5079603;28;20071;-83
2023/01/24 00:46:59;;;;;;;24.07;20.97;;;;;;;1.82;100.00;103663.53;5091680;28;20058;-83
2023/01/24 00:49:24;;;;;;;23.43;20.93;;;;;;;1.81;100.00;103661.81;5057820;28;20152;-83
2023/01/24 00:51:49;;;;;;;23.73;21.10;;;;;;;1.81;100.00;103665.38;5086489;28;20031;-83
2023/01/24 00:54:15;;;;;;;23.60;21.10;;;;;;;1.82;100.00;103658.19;5075975;28;20043;-83
2023/01/24 00:56:40;;;;;;;22.33;19.77;;;;;;;1.81;100.00;103662.69;5091340;28;20017;-83
2023/01/24 00:59:05;;;;;;;24.97;22.10;;;;;;;1.82;100.00;103668.91;5079622;28;20032;-83
2023/01/24 01:01:31;;;;;;;21.90;18.90;;;;;;;1.82;100.00;103655.53;5095390;28;20092;-83
2023/01/24 01:03:57;;;;;;;20.10;17.23;;;;;;;1.79;100.00;103645.88;5063186;28;20027;-83
2023/01/24 01:06:24;;;;;;;21.13;18.03;;;;;;;1.84;100.00;103649.16;5092624;28;20027;-83
2023/01/24 01:08:51;;;;;;;21.30;17.93;;;;;;;1.82;100.00;103650.19;5092166;28;20078;-83
2023/01/24 01:11:16;;;;;;;22.23;19.20;;;;;;;1.79;100.00;103645.88;5095262;28;20027;-83
2023/01/24 01:13:42;;;;;;;23.10;19.80;;;;;;;1.81;100.00;103652.00;5095269;28;20032;-83
2023/01/24 01:16:11;;;;;;;21.93;18.37;;;;;;;1.78;100.00;103646.84;5090606;28;20023;-83
2023/01/24 01:18:37;;;;;;;21.50;18.50;;;;;;;1.79;100.00;103648.53;5098555;28;20023;-83
2023/01/24 01:21:04;;;;;;;26.27;21.93;;;;;;;1.74;100.00;103645.28;5096265;28;20029;-83
2023/01/24 01:23:29;;;;;;;24.10;20.17;;;;;;;1.77;100.00;103645.09;5089070;28;22129;-83
2023/01/24 01:25:59;;;;;;;27.50;22.37;;;;;;;1.78;100.00;103646.84;5078254;28;20119;-83
2023/01/24 01:28:25;;;;;;;21.93;19.43;;;;;;;1.78;100.00;103640.59;5094607;28;20101;-83
2023/01/24 01:30:54;;;;;;;22.03;19.00;;;;;;;1.80;100.00;103663.63;5097966;28;20062;-83
2023/01/24 01:33:20;;;;;;;23.00;20.47;;;;;;;1.76;100.00;103654.06;5099098;28;20020;-83
2023/01/24 01:35:47;;;;;;;21.83;18.97;;;;;;;1.77;100.00;103663.81;5101304;28;20030;-83
2023/01/24 01:38:13;;;;;;;20.97;18.40;;;;;;;1.77;100.00;103653.13;5091503;28;20396;-83
2023/01/24 01:40:38;;;;;;;21.97;18.80;;;;;;;1.79;100.00;103656.56;5097525;28;20032;-83
2023/01/24 01:43:11;;;;;;;21.57;18.63;;;;;;;1.77;100.00;103655.78;5083659;28;20036;-83
2023/01/24 01:45:43;;;;;;;21.07;18.13;;;;;;;1.77;100.00;103655.78;5093933;28;21073;-83
2023/01/24 01:48:33;;;;;;;21.20;18.53;;;;;;;1.80;100.00;103658.28;5100436;28;20407;-83
2023/01/24 01:51:17;;;;;;;21.77;18.87;;;;;;;1.78;100.00;103649.50;5080198;28;20057;-83
2023/01/24 01:54:09;;;;;;;21.17;18.10;;;;;;;1.88;100.00;103657.00;5095661;28;20383;-83
2023/01/24 01:56:39;;;;;;;21.57;18.60;;;;;;;1.76;100.00;103646.03;5098312;28;20028;-83
2023/01/24 01:59:11;;;;;;;22.33;19.60;;;;;;;1.73;100.00;103658.69;5097035;28;20042;-83
2023/01/24 02:01:37;;;;;;;23.00;19.90;;;;;;;1.72;100.00;103647.16;5095632;28;20569;-90
2023/01/24 02:04:15;;;;;;;22.63;19.40;;;;;;;1.71;100.00;103649.91;5080502;28;20036;-89
2023/01/24 02:06:52;;;;;;;23.13;19.93;;;;;;;1.69;100.00;103644.66;5103514;28;20016;-89
2023/01/24 02:09:22;;;;;;;23.13;19.33;;;;;;;1.70;100.00;103643.72;5100931;28;20024;-83
2023/01/24 02:11:49;;;;;;;23.93;20.53;;;;;;;1.67;100.00;103639.41;5094893;28;20028;-83
2023/01/24 02:17:01;;;;;;;22.67;19.73;;;;;;;1.69;100.00;103644.66;5092897;28;20039;-83
2023/01/24 02:20:05;;;;;;;22.47;19.77;;;;;;;1.73;100.00;103645.34;5098506;28;20032;-83
2023/01/24 02:22:37;;;;;;;22.83;20.13;;;;;;;1.68;100.00;103630.41;4992773;28;20380;-83
2023/01/24 02:25:09;;;;;;;23.17;20.63;;;;;;;1.66;100.00;103642.16;5094779;28;20023;-90
2023/01/24 02:27:34;;;;;;;23.37;20.63;;;;;;;1.68;100.00;103642.94;5090591;28;20890;-89
2023/01/24 02:30:00;;;;;;;23.37;20.30;;;;;;;1.67;100.00;103643.88;5101020;28;20038;-89
2023/01/24 02:32:25;;;;;;;24.33;21.50;;;;;;;1.64;100.00;103641.38;5092422;28;20102;-90
2023/01/24 02:34:51;;;;;;;24.47;21.57;;;;;;;1.62;100.00;103651.28;5099198;28;20036;-83
2023/01/24 02:37:16;;;;;;;24.87;20.73;;;;;;;1.62;100.00;103646.81;5099694;28;20058;-83
2023/01/24 02:40:02;;;;;;;24.90;21.70;;;;;;;1.63;100.00;103647.66;5077966;28;20075;-83
2023/01/24 02:42:33;;;;;;;27.07;24.17;;;;;;;1.59;100.00;103646.09;5097626;28;20930;-83
2023/01/24 02:45:14;;;;;;;25.40;22.70;;;;;;;1.57;100.00;103648.84;5099351;28;20023;-83
2023/01/24 02:47:46;;;;;;;25.50;22.80;;;;;;;1.58;100.00;103649.72;5095025;28;20498;-83
2023/01/24 02:50:12;;;;;;;29.77;26.57;;;;;;;1.60;100.00;103647.84;5095849;28;20063;-83
2023/01/24 02:55:24;;;;;;;35.40;31.70;;;;;;;1.57;100.00;103642.66;5072115;28;20441;-83
2023/01/24 02:58:08;;;;;;;34.13;30.47;;;;;;;1.52;100.00;103635.75;5093062;28;20066;-83
2023/01/24 03:00:34;;;;;;;28.20;24.33;;;;;;;1.55;100.00;103637.41;5081356;28;20559;-89
2023/01/24 03:03:00;;;;;;;26.97;23.77;;;;;;;1.50;100.00;103642.13;5095134;28;20019;-89
2023/01/24 03:05:25;;;;;;;28.60;25.50;;;;;;;1.51;100.00;103643.88;5098501;28;20019;-89
2023/01/24 03:07:50;;;;;;;27.47;24.47;;;;;;;1.49;100.00;103643.91;5096115;28;20196;-88
2023/01/24 03:10:18;;;;;;;55.60;49.70;;;;;;;1.46;100.00;103640.56;5090664;28;20032;-89
2023/01/24 03:34:48;;;;;;;30.87;27.60;;;;;;;1.35;100.00;103638.47;5099137;28;20086;-83
2023/01/24 03:37:16;;;;;;;32.43;28.93;;;;;;;1.38;100.00;103632.09;5088859;28;20290;-89
2023/01/24 03:39:58;;;;;;;31.13;27.83;;;;;;;1.31;100.00;103643.09;5103707;28;20051;-89
2023/01/24 03:42:26;;;;;;;28.77;25.67;;;;;;;1.35;100.00;103643.81;5096714;28;20039;-89
2023/01/24 03:44:51;;;;;;;33.17;29.63;;;;;;;1.31;100.00;103639.59;5103929;28;20112;-89
2023/01/24 03:47:17;;;;;;;29.63;26.50;;;;;;;1.26;100.00;103636.28;5081340;28;20126;-89
2023/01/24 03:52:29;;;;;;;25.60;22.83;;;;;;;1.27;100.00;103632.69;5088538;28;20143;-89
2023/01/24 03:54:56;;;;;;;28.03;25.00;;;;;;;1.22;100.00;103638.25;5089265;28;20378;-89
2023/01/24 03:57:22;;;;;;;27.50;24.47;;;;;;;1.23;100.00;103639.97;5097293;28;20031;-89
2023/01/24 03:59:47;;;;;;;24.80;22.10;;;;;;;1.23;100.00;103639.97;5061328;28;20056;-83
2023/01/24 04:02:13;;;;;;;26.23;23.43;;;;;;;1.22;100.00;103630.22;5087562;28;20113;-83
2023/01/24 04:07:22;;;;;;;25.40;22.60;;;;;;;1.23;100.00;103642.66;5088949;28;20051;-83
2023/01/24 04:09:47;;;;;;;25.43;22.63;;;;;;;1.18;100.00;103632.22;5092756;28;20036;-83
2023/01/24 04:12:12;;;;;;;25.83;23.03;;;;;;;1.14;100.00;103636.00;5062823;28;20061;-83
2023/01/24 04:14:38;;;;;;;25.07;21.77;;;;;;;1.12;100.00;103637.88;5059106;28;20411;-83
2023/01/24 04:17:03;;;;;;;25.50;22.70;;;;;;;1.12;100.00;103629.88;5073825;28;21706;-83
2023/01/24 04:19:28;;;;;;;25.40;22.00;;;;;;;1.13;100.00;103630.72;5071467;28;21862;-83
2023/01/24 04:21:57;;;;;;;24.40;21.80;;;;;;;1.13;100.00;103628.94;5097104;28;20480;-83
2023/01/24 04:24:22;;;;;;;23.07;20.63;;;;;;;1.13;100.00;103633.38;5063013;28;20051;-83
2023/01/24 04:26:48;;;;;;;24.37;21.77;;;;;;;1.09;100.00;103638.06;5090198;28;20475;-83
2023/01/24 04:29:13;;;;;;;24.27;21.30;;;;;;;1.07;100.00;103637.25;5094177;28;20042;-83
2023/01/24 04:31:38;;;;;;;24.50;21.80;;;;;;;1.09;100.00;103643.38;5076755;28;20031;-83
2023/01/24 04:34:04;;;;;;;23.03;20.53;;;;;;;1.06;100.00;103642.69;5087744;28;20951;-83
2023/01/24 04:36:29;;;;;;;23.50;20.83;;;;;;;1.09;100.00;103643.38;5100645;28;20084;-83
2023/01/24 04:38:55;;;;;;;24.00;21.40;;;;;;;1.08;100.00;103641.66;5090859;28;20036;-83
2023/01/24 04:41:20;;;;;;;23.10;20.60;;;;;;;1.07;100.00;103645.25;5092702;28;20093;-83
2023/01/24 04:43:46;;;;;;;23.37;20.77;;;;;;;1.06;100.00;103638.22;5095157;28;20066;-83
2023/01/24 04:46:11;;;;;;;24.87;22.13;;;;;;;1.09;100.00;103643.38;5077762;28;20611;-83
2023/01/24 04:48:36;;;;;;;27.40;24.13;;;;;;;1.11;100.00;103654.84;5091305;28;20060;-83
2023/01/24 04:51:02;;;;;;;26.87;23.57;;;;;;;1.06;100.00;103645.34;5075743;28;20716;-83
2023/01/24 04:53:29;;;;;;;29.20;26.10;;;;;;;1.03;100.00;103649.03;5094162;28;20043;-83
2023/01/24 04:56:02;;;;;;;29.63;26.53;;;;;;;1.05;100.00;103640.94;5091032;28;20025;-83
2023/01/24 04:58:27;;;;;;;38.17;34.10;;;;;;;1.06;100.00;103651.56;5092845;28;20080;-83
2023/01/24 05:00:53;;;;;;;26.67;23.77;;;;;;;1.11;100.00;103644.16;5071791;28;20115;-83
2023/01/24 05:03:18;;;;;;;31.33;28.13;;;;;;;1.07;100.00;103647.94;5094599;28;20039;-83
2023/01/24 05:05:48;;;;;;;27.00;24.20;;;;;;;1.07;100.00;103645.25;5090262;28;20063;-83
2023/01/24 05:08:13;;;;;;;27.70;24.77;;;;;;;1.10;100.00;103646.91;5092759;28;20039;-83
2023/01/24 05:10:38;;;;;;;25.63;22.93;;;;;;;1.10;100.00;103639.78;5058086;28;20028;-83
2023/01/24 05:13:04;;;;;;;29.60;26.57;;;;;;;1.09;100.00;103640.72;5088658;28;20036;-83
2023/01/24 05:15:29;;;;;;;24.43;21.83;;;;;;;1.05;100.00;103647.16;5072472;28;20055;-83
2023/01/24 05:17:54;;;;;;;27.40;23.60;;;;;;;1.05;100.00;103647.16;5072739;28;20479;-89
2023/01/24 05:20:20;;;;;;;27.20;24.33;;;;;;;1.02;100.00;103652.69;5096067;28;20032;-89
2023/01/24 05:22:46;;;;;;;26.90;24.00;;;;;;;1.02;100.00;103652.69;5078421;28;20031;-89
2023/01/24 05:25:14;;;;;;;25.03;22.33;;;;;;;1.03;100.00;103657.03;5094249;28;20123;-89
2023/01/24 05:27:40;;;;;;;28.80;25.70;;;;;;;1.06;100.00;103654.25;5091686;28;20102;-89
2023/01/24 05:30:06;;;;;;;27.80;24.80;;;;;;;1.03;100.00;103659.72;5092268;28;20036;-89
2023/01/24 05:32:31;;;;;;;29.47;26.27;;;;;;;1.04;100.00;103655.25;5095108;28;20122;-90
2023/01/24 05:34:57;;;;;;;26.17;23.33;;;;;;;1.05;100.00;103648.94;5100572;28;20059;-89
2023/01/24 05:37:22;;;;;;;71.23;53.93;;;;;;;1.03;100.00;103653.53;5069737;28;20069;-89
2023/01/24 05:39:48;;;;;;;62.13;56.57;;;;;;;0.98;100.00;103662.63;5079663;28;20032;-89
2023/01/24 05:42:13;;;;;;;29.20;26.20;;;;;;;0.98;100.00;103657.31;5092871;28;20020;-89
2023/01/24 05:44:38;;;;;;;49.53;44.77;;;;;;;0.97;100.00;103662.72;5078392;28;20028;-90
2023/01/24 05:47:04;;;;;;;38.97;35.23;;;;;;;0.98;100.00;103672.44;5062602;28;20042;-90
2023/01/24 05:49:29;;;;;;;27.90;25.00;;;;;;;0.97;100.00;103679.59;5055351;28;20032;-89
2023/01/24 05:51:54;;;;;;;27.40;24.50;;;;;;;0.97;100.00;103676.06;5074485;28;20037;-89
2023/01/24 05:54:20;;;;;;;25.80;23.07;;;;;;;0.97;100.00;103674.25;5054764;28;20044;-89
2023/01/24 05:56:45;;;;;;;24.93;22.23;;;;;;;0.98;100.00;103676.00;5080708;28;20028;-89
2023/01/24 05:59:12;;;;;;;24.63;21.93;;;;;;;1.01;100.00;103691.00;5082311;28;20039;-89
2023/01/24 06:01:37;;;;;;;26.60;23.73;;;;;;;0.99;100.00;103684.84;5084849;28;20043;-89
2023/01/24 06:04:02;;;;;;;25.53;22.67;;;;;;;0.99;100.00;103687.53;5092873;28;20056;-89
2023/01/24 06:06:28;;;;;;;26.50;23.67;;;;;;;1.00;100.00;103681.25;5052483;28;20028;-90
2023/01/24 06:08:53;;;;;;;25.40;22.67;;;;;;;1.01;100.00;103688.31;5078636;28;20551;-89
2023/01/24 06:11:24;;;;;;;26.43;23.50;;;;;;;1.00;100.00;103686.59;5074268;28;20050;-89
2023/01/24 06:13:50;;;;;;;27.13;23.57;;;;;;;1.03;100.00;103691.75;5091377;28;20427;-90
2023/01/24 06:16:22;;;;;;;25.60;22.90;;;;;;;1.03;100.00;103693.56;5098684;28;20076;-83
2023/01/24 06:18:48;;;;;;;26.00;23.20;;;;;;;1.03;100.00;103691.75;5092557;28;20496;-83
2023/01/24 06:21:41;;;;;;;25.70;22.57;;;;;;;1.05;100.00;103689.00;5094768;28;20035;-82
2023/01/24 06:24:24;;;;;;;25.27;22.57;;;;;;;1.00;100.00;103689.25;5092209;28;20375;-83
2023/01/24 06:26:51;;;;;;;25.00;22.30;;;;;;;0.96;100.00;103693.03;5096599;28;20028;-83
2023/01/24 06:29:18;;;;;;;26.30;23.43;;;;;;;0.93;100.00;103687.84;5062856;28;20297;-83
2023/01/24 06:31:57;;;;;;;26.87;23.97;;;;;;;0.90;100.00;103687.97;5097964;28;20039;-83
2023/01/24 06:34:54;;;;;;;26.13;23.33;;;;;;;0.91;100.00;103697.72;5098232;28;21748;-83
2023/01/24 06:37:45;;;;;;;28.30;25.30;;;;;;;0.94;100.00;103710.91;5092183;28;20597;-83
2023/01/24 06:40:12;;;;;;;27.90;24.90;;;;;;;0.89;100.00;103699.63;5099374;28;20035;-88
2023/01/24 06:42:38;;;;;;;27.80;24.80;;;;;;;0.91;100.00;103703.94;5100249;28;20298;-88
2023/01/24 06:45:04;;;;;;;26.90;24.00;;;;;;;0.89;100.00;103710.31;5079255;28;20470;-89
2023/01/24 06:47:30;;;;;;;27.70;24.70;;;;;;;0.91;100.00;103708.41;5092025;27;20089;-89
2023/01/24 06:49:55;;;;;;;27.40;24.50;;;;;;;0.93;100.00;103710.06;5097475;28;20083;-89
2023/01/24 06:52:21;;;;;;;27.23;24.33;;;;;;;0.95;100.00;103707.31;5099898;28;20119;-89
2023/01/24 06:54:46;;;;;;;28.53;25.53;;;;;;;0.97;100.00;103705.44;5052550;28;20036;-89
2023/01/24 06:57:12;;;;;;;27.43;24.43;;;;;;;0.99;100.00;103703.53;5086638;28;20031;-89
2023/01/24 06:59:37;;;;;;;28.07;25.07;;;;;;;0.96;100.00;103699.22;5094236;28;20096;-89
2023/01/24 07:02:03;;;;;;;28.27;25.27;;;;;;;0.99;100.00;103712.44;5084571;28;20511;-88
2023/01/24 07:04:29;;;;;;;27.43;24.53;;;;;;;0.97;100.00;103708.09;5098528;28;21754;-90
2023/01/24 07:06:54;;;;;;;28.97;25.97;;;;;;;0.96;100.00;103707.22;5093443;28;20958;-89
2023/01/24 07:09:20;;;;;;;28.17;25.17;;;;;;;0.97;100.00;103710.78;5096499;28;21017;-89
2023/01/24 07:11:49;;;;;;;28.93;25.93;;;;;;;0.96;100.00;103707.22;5095695;28;20036;-89
2023/01/24 07:14:15;;;;;;;30.77;27.57;;;;;;;0.95;100.00;103720.66;5086505;28;20077;-88
2023/01/24 07:16:40;;;;;;;29.30;26.17;;;;;;;0.95;100.00;103726.88;5095608;28;20426;-83
2023/01/24 07:19:12;;;;;;;37.03;33.30;;;;;;;0.93;100.00;103727.91;5057695;28;20086;-83
2023/01/24 07:21:39;;;;;;;30.13;26.93;;;;;;;0.92;100.00;103728.84;5088613;28;20035;-83
2023/01/24 07:24:12;;;;;;;26.83;23.90;;;;;;;0.91;100.00;103740.44;5076084;28;20028;-83
2023/01/24 07:26:37;;;;;;;27.43;24.53;;;;;;;0.88;100.00;103735.25;5101912;28;20292;-83
2023/01/24 07:29:03;;;;;;;26.93;24.03;;;;;;;0.85;100.00;103752.28;5095566;28;20383;-83
2023/01/24 07:31:28;;;;;;;26.83;23.77;;;;;;;0.81;100.00;103750.72;5097106;28;20039;-83
2023/01/24 07:33:53;;;;;;;27.73;24.73;;;;;;;0.76;100.00;103747.41;5070455;28;20035;-83
2023/01/24 07:36:19;;;;;;;27.27;23.97;;;;;;;0.73;100.00;103743.06;5098972;28;20036;-83
2023/01/24 07:38:44;;;;;;;27.13;24.20;;;;;;;0.72;100.00;103745.81;5090492;28;20460;-83
2023/01/24 07:41:10;;;;;;;26.00;22.70;;;;;;;0.69;100.00;103749.50;5095671;28;20027;-83
2023/01/24 07:43:35;;;;;;;26.97;24.07;;;;;;;0.69;100.00;103752.19;5096208;28;20086;-83
2023/01/24 07:46:01;;;;;;;26.83;23.93;;;;;;;0.69;100.00;103757.50;5076951;28;20391;-83
2023/01/24 07:48:26;;;;;;;27.77;24.70;;;;;;;0.70;100.00;103753.06;5097507;28;20055;-83
2023/01/24 07:50:52;;;;;;;27.00;24.10;;;;;;;0.68;100.00;103761.16;5076552;28;20051;-83
2023/01/24 07:53:17;;;;;;;26.93;24.00;;;;;;;0.67;100.00;103770.94;5081156;28;20030;-83
2023/01/24 07:55:42;;;;;;;27.30;24.30;;;;;;;0.67;100.00;103759.41;5102305;28;20027;-89
2023/01/24 07:58:08;;;;;;;28.30;24.67;;;;;;;0.63;100.00;103763.16;5099251;28;20016;-89
2023/01/24 08:00:33;;;;;;;28.00;25.00;;;;;;;0.66;100.00;103758.53;5075516;28;20106;-90
2023/01/24 08:02:58;;;;;;;27.57;24.53;;;;;;;0.64;100.00;103768.44;5077060;28;20526;-90
2023/01/24 08:05:24;;;;;;;27.73;24.73;;;;;;;0.66;100.00;103769.19;5090856;28;20028;-89
2023/01/24 08:07:49;;;;;;;28.23;24.87;;;;;;;0.65;100.00;103767.50;5074016;28;20053;-88
2023/01/24 08:10:15;;;;;;;28.33;25.33;;;;;;;0.66;100.00;103779.03;5078201;28;20027;-89
2023/01/24 08:12:41;;;;;;;29.90;26.63;;;;;;;0.59;100.00;103769.59;5081912;28;20027;-89
2023/01/24 08:15:07;;;;;;;29.30;26.10;;;;;;;0.59;100.00;103766.94;5094270;28;20035;-90
2023/01/24 08:17:32;;;;;;;28.23;25.00;;;;;;;0.62;100.00;103769.44;5090848;28;20492;-89
2023/01/24 08:19:57;;;;;;;29.47;26.27;;;;;;;0.61;100.00;103762.38;5067725;28;20048;-89
2023/01/24 08:22:26;;;;;;;30.23;27.03;;;;;;;0.63;100.00;103768.50;5086490;28;20031;-89
2023/01/24 08:24:51;;;;;;;28.37;25.23;;;;;;;0.64;100.00;103767.53;5092379;28;20466;-89
2023/01/24 08:27:16;;;;;;;30.63;27.33;;;;;;;0.61;100.00;103767.69;5051967;28;20292;-90
2023/01/24 08:29:42;;;;;;;31.53;27.70;;;;;;;0.64;100.00;103776.44;5053021;28;20035;-89
2023/01/24 08:32:08;;;;;;;31.07;27.47;;;;;;;0.64;100.00;103781.78;5084778;28;20416;-89
2023/01/24 08:34:33;;;;;;;28.67;24.83;;;;;;;0.63;100.00;103771.19;5078943;28;20031;-88
2023/01/24 08:36:58;;;;;;;27.53;24.47;;;;;;;0.61;100.00;103781.94;5068107;28;20969;-89
2023/01/24 08:39:24;;;;;;;28.30;24.50;;;;;;;0.61;100.00;103775.72;5066406;28;20020;-88
2023/01/24 08:41:49;;;;;;;28.33;24.03;;;;;;;0.67;100.00;103791.44;5084852;28;20034;-88
2023/01/24 08:44:15;;;;;;;28.17;24.77;;;;;;;0.61;100.00;103781.03;5068164;28;20056;-89
2023/01/24 08:46:41;;;;;;;28.93;24.93;;;;;;;0.65;100.00;103795.97;5068495;28;20040;-89
2023/01/24 08:49:07;;;;;;;27.63;24.60;;;;;;;0.62;100.00;103793.44;5065211;28;20039;-89
2023/01/24 08:51:32;;;;;;;28.47;24.07;;;;;;;0.62;100.00;103796.13;5069927;28;20290;-89
2023/01/24 08:53:57;;;;;;;28.23;24.17;;;;;;;0.62;100.00;103790.78;5068773;28;20036;-88
2023/01/24 08:56:23;;;;;;;27.03;23.60;;;;;;;0.62;100.00;103799.66;5051332;28;20039;-89
2023/01/24 08:58:48;;;;;;;27.60;23.93;;;;;;;0.67;100.00;103799.44;5051901;28;20036;-88
2023/01/24 09:01:14;;;;;;;27.67;24.27;;;;;;;0.65;100.00;103803.97;5070090;28;20498;-89
2023/01/24 09:03:39;;;;;;;29.10;23.83;;;;;;;0.60;100.00;103806.88;5084641;28;20036;-89
2023/01/24 09:06:05;;;;;;;30.03;25.50;;;;;;;0.61;100.00;103805.06;5085266;28;20040;-84
2023/01/24 09:08:31;;;;;;;30.20;25.43;;;;;;;0.60;100.00;103806.88;5084865;28;20949;-83
2023/01/24 09:10:58;;;;;;;27.17;23.43;;;;;;;0.64;100.00;103810.25;5083293;28;20348;-83
2023/01/24 09:13:24;;;;;;;29.07;24.57;;;;;;;0.65;100.00;103801.31;5084350;28;20031;-83
2023/01/24 09:15:49;;;;;;;28.33;24.50;;;;;;;0.65;100.00;103801.31;5083641;28;20042;-82
2023/01/24 09:18:16;;;;;;;30.40;25.77;;;;;;;0.70;100.00;103801.94;5049917;28;20036;-84
2023/01/24 09:20:41;;;;;;;28.20;24.40;;;;;;;0.75;100.00;103804.38;5083717;28;20023;-84
2023/01/24 09:23:14;;;;;;;27.57;24.17;;;;;;;0.72;100.00;103810.78;5065820;28;20347;-85
2023/01/24 09:25:40;;;;;;;28.20;25.03;;;;;;;0.73;100.00;103807.13;5082728;28;20391;-84
2023/01/24 09:28:06;;;;;;;26.13;22.93;;;;;;;0.75;100.00;103807.06;5081247;28;20290;-84
2023/01/24 09:30:33;;;;;;;28.53;24.03;;;;;;;0.75;100.00;103802.59;5065482;28;20297;-83
2023/01/24 09:33:02;;;;;;;29.77;26.30;;;;;;;0.77;100.00;103814.06;5083764;28;20073;-83
2023/01/24 09:35:27;;;;;;;27.97;23.60;;;;;;;0.77;100.00;103815.88;5084483;28;20056;-82
2023/01/24 09:37:52;;;;;;;28.60;25.17;;;;;;;0.76;100.00;103814.13;5066737;28;20701;-83
2023/01/24 09:40:25;;;;;;;28.80;25.73;;;;;;;0.76;100.00;103816.81;5065348;28;20479;-83
2023/01/24 09:43:13;;;;;;;27.90;23.53;;;;;;;0.79;100.00;103816.66;5084211;28;20078;-83
2023/01/24 09:46:25;;;;;;;27.10;23.47;;;;;;;0.82;100.00;103817.38;5084308;28;20293;-83
2023/01/24 09:48:59;;;;;;;47.57;43.30;;;;;;;0.77;100.00;103824.72;5074790;28;20631;-83
2023/01/24 09:51:29;;;;;;;53.08;48.33;;;;;;;0.76;100.00;103822.13;5077586;28;20320;-89
2023/01/24 09:53:56;;;;;;;46.83;42.53;;;;;;;0.76;100.00;103828.38;5089568;28;20016;-89
2023/01/24 09:56:35;;;;;;;33.50;29.97;;;;;;;0.81;100.00;103828.97;5091873;28;20016;-89
2023/01/24 09:59:25;;;;;;;56.93;51.77;;;;;;;0.87;100.00;103824.28;5091668;28;20089;-89
2023/01/24 10:01:51;;;;;;;32.23;28.83;;;;;;;0.90;100.00;103832.16;5090707;28;20106;-89
2023/01/24 10:04:20;;;;;;;26.77;22.77;;;;;;;0.87;100.00;103833.19;5087365;28;20391;-90
2023/01/24 10:07:15;;;;;;;29.73;26.63;;;;;;;0.90;100.00;103832.16;5089800;28;20278;-90
2023/01/24 10:09:47;;;;;;;27.33;24.40;;;;;;;0.89;100.00;103827.78;5075421;28;20039;-89
2023/01/24 10:12:31;;;;;;;26.90;24.00;;;;;;;0.86;100.00;103834.13;5088369;28;20024;-89
2023/01/24 10:14:56;;;;;;;39.45;35.55;;;;;;;0.91;100.00;103825.88;5087102;28;20035;-89
2023/01/24 10:18:08;;;;;;;27.37;24.37;;;;;;;0.97;100.00;103830.94;5088405;28;20031;-89
2023/01/24 10:21:11;;;;;;;29.20;26.10;;;;;;;0.97;100.00;103825.59;5070924;28;20040;-89
2023/01/24 10:23:40;;;;;;;25.33;22.23;;;;;;;0.95;100.00;103831.00;5087814;28;20472;-89
2023/01/24 10:26:25;;;;;;;26.13;22.90;;;;;;;0.99;100.00;103831.69;5086946;28;20020;-83
2023/01/24 10:29:16;;;;;;;27.15;24.23;;;;;;;1.01;100.00;103832.50;5097014;28;20038;-84
2023/01/24 10:31:49;;;;;;;26.90;23.97;;;;;;;0.97;100.00;103828.25;5087016;28;20122;-83
2023/01/24 10:34:41;;;;;;;25.90;22.77;;;;;;;1.00;100.00;103833.44;5086416;28;20073;-83
2023/01/24 10:37:09;;;;;;;28.33;25.33;;;;;;;1.03;100.00;103832.44;5078453;28;20127;-83
2023/01/24 10:39:36;;;;;;;33.30;30.10;;;;;;;1.10;100.00;103818.72;5085414;28;20076;-83
2023/01/24 10:42:03;;;;;;;28.00;25.00;;;;;;;1.12;100.00;103822.16;5085129;28;20031;-83
2023/01/24 10:44:36;;;;;;;27.10;23.30;;;;;;;1.10;100.00;103824.06;5086110;28;20028;-83
2023/01/24 10:47:21;;;;;;;28.33;25.43;;;;;;;1.20;100.00;103823.56;5087209;28;20115;-83
2023/01/24 10:50:00;;;;;;;31.07;27.97;;;;;;;1.18;100.00;103826.31;5085423;28;20157;-83
2023/01/24 10:52:26;;;;;;;27.00;24.20;;;;;;;1.11;100.00;103822.22;5084550;28;20119;-83
2023/01/24 10:55:01;;;;;;;25.87;23.07;;;;;;;1.16;100.00;103817.53;5086544;28;20103;-83
2023/01/24 10:57:40;;;;;;;38.13;34.70;;;;;;;1.15;100.00;103821.13;5085342;28;20039;-83
2023/01/24 11:00:26;;;;;;;38.00;34.37;;;;;;;1.17;100.00;103817.44;5084152;28;20019;-83
2023/01/24 11:02:58;;;;;;;26.43;23.40;;;;;;;1.22;100.00;103814.53;5088206;28;20035;-83
2023/01/24 11:05:25;;;;;;;24.20;21.20;;;;;;;1.22;100.00;103813.69;5087300;28;20501;-83
2023/01/24 11:08:00;;;;;;;24.10;21.10;;;;;;;1.24;100.00;103814.47;5088589;28;20028;-84
2023/01/24 11:10:26;;;;;;;;;;;;;;;1.38;100.00;103811.09;5059733;28;20546;-83
2023/01/24 11:12:58;;;;;;;22.93;19.23;;;;;;;1.21;100.00;103802.16;5073583;28;20023;-84
2023/01/24 11:15:30;;;;;;;28.90;19.97;;;;;;;1.23;100.00;103815.41;5089396;28;20024;-83
2023/01/24 11:18:05;;;;;;;24.03;19.90;;;;;;;1.28;100.00;103802.66;5088180;28;20020;-83
2023/01/24 11:20:33;;;;;;;24.43;19.43;;;;;;;1.27;100.00;103806.31;5088069;28;20024;-83
2023/01/24 11:23:27;;;;;;;22.07;18.90;;;;;;;1.38;100.00;103800.41;5087247;28;20085;-83
2023/01/24 11:26:04;;;;;;;25.17;19.67;;;;;;;1.31;100.00;103799.88;5083067;28;20055;-83
2023/01/24 11:28:32;;;;;;;24.17;18.97;;;;;;;1.34;100.00;103797.88;5086189;28;20368;-83
2023/01/24 11:31:15;;;;;;;23.23;19.30;;;;;;;1.32;100.00;103797.13;5087451;28;20028;-83
2023/01/24 11:33:58;;;;;;;22.73;18.63;;;;;;;1.34;100.00;103791.69;5102192;27;20050;-83
2023/01/24 11:36:29;;;;;;;21.90;18.47;;;;;;;1.39;100.00;103786.97;5091183;28;20080;-87
2023/01/24 11:39:00;;;;;;;23.63;18.73;;;;;;;1.39;100.00;103788.78;5084190;28;20024;-87
2023/01/24 11:41:51;;;;;;;23.10;18.70;;;;;;;1.45;100.00;103781.31;5092285;28;20036;-87
2023/01/24 11:44:38;;;;;;;23.57;20.97;;;;;;;1.44;100.00;103776.03;5097593;28;20028;-87
2023/01/24 11:47:17;;;;;;;21.77;18.23;;;;;;;1.41;100.00;103778.88;5098349;28;20044;-87
2023/01/24 11:49:54;;;;;;;20.97;18.03;;;;;;;1.43;100.00;103776.97;5092996;28;20024;-87
2023/01/24 11:52:26;;;;;;;22.53;18.50;;;;;;;1.38;100.00;103782.56;5096451;28;20036;-87